Time;durP1;ratioP1;P1;durP2;ratioP2;P2;SDS_P1;SDS_P2;PMS_P1;PMS_P2;Temp;Humidity;BMP_temperature;BMP_pressure;BME280_temperature;BME280_humidity;BME280_pressure;Samples;Min_cycle;Max_cycle;Signal;HPM_P1;HPM_P2
2022/10/03 00:01:35;;;;;;;2.88;2.20;;;;;;;24.05;45.93;94931.44;4925736;28;20074;-67
2022/10/03 00:04:09;;;;;;;2.90;2.00;;;;;;;24.05;46.03;94928.72;4999616;28;20561;-67
2022/10/03 00:06:50;;;;;;;3.03;2.13;;;;;;;24.02;46.30;94918.84;4988507;28;20054;-66
2022/10/03 00:09:46;;;;;;;2.53;2.08;;;;;;;24.00;46.33;94921.31;4988059;28;20053;-67
2022/10/03 00:12:48;;;;;;;2.78;2.10;;;;;;;24.01;46.06;94920.09;4993257;28;20038;-67
2022/10/03 00:15:28;;;;;;;3.08;2.33;;;;;;;23.66;45.83;94858.81;5000289;28;20053;-65
2022/10/03 00:18:13;;;;;;;2.55;1.80;;;;;;;23.92;46.39;94898.63;4979445;28;20031;-67
2022/10/03 00:20:39;;;;;;;2.83;2.20;;;;;;;23.97;46.44;94899.81;4983362;28;20191;-67
2022/10/03 00:23:22;;;;;;;2.45;2.10;;;;;;;23.91;46.07;94886.22;5011397;28;20057;-67
2022/10/03 00:25:56;;;;;;;3.47;2.00;;;;;;;23.95;46.75;94891.41;5004949;28;20505;-65
2022/10/03 00:28:45;;;;;;;2.90;1.80;;;;;;;23.88;46.27;94876.38;5001440;28;20064;-66
2022/10/03 00:31:15;;;;;;;3.73;2.13;;;;;;;23.92;46.38;94898.63;4985758;28;20042;-66
2022/10/03 00:33:50;;;;;;;2.60;2.20;;;;;;;23.94;46.42;94904.28;4997459;28;20041;-66
2022/10/03 00:36:22;;;;;;;2.80;2.10;;;;;;;23.93;46.85;94902.84;5019191;28;20518;-66
2022/10/03 00:39:25;;;;;;;3.25;2.40;;;;;;;23.91;46.45;94912.78;5015249;28;20099;-66
2022/10/03 00:42:00;;;;;;;2.40;1.92;;;;;;;23.90;46.97;94894.94;5011996;28;20481;-67
2022/10/03 00:44:36;;;;;;;2.58;1.98;;;;;;;23.90;47.00;94912.06;4995949;28;20036;-67
2022/10/03 00:47:25;;;;;;;3.55;2.17;;;;;;;23.89;46.76;94904.38;5019285;28;20554;-67
2022/10/03 00:50:10;;;;;;;2.90;2.13;;;;;;;23.90;46.95;94906.59;4994404;28;20605;-66
2022/10/03 00:53:13;;;;;;;2.75;2.03;;;;;;;23.87;46.98;94902.16;4988616;28;20046;-67
2022/10/03 00:55:47;;;;;;;2.30;1.83;;;;;;;23.55;46.58;94858.91;5009771;28;20042;-66
2022/10/03 00:58:28;;;;;;;2.63;2.03;;;;;;;23.88;47.13;94917.28;5018867;28;20056;-66
2022/10/03 01:00:57;;;;;;;3.15;1.80;;;;;;;23.86;46.59;94906.13;4995428;28;20054;-66
2022/10/03 01:03:32;;;;;;;2.50;1.97;;;;;;;23.84;46.93;94902.47;4983455;28;20037;-66
2022/10/03 01:06:18;;;;;;;2.60;1.90;;;;;;;23.83;46.79;94892.06;5018579;28;20029;-66
2022/10/03 01:08:46;;;;;;;3.10;2.17;;;;;;;23.85;46.80;94881.38;5001891;28;20405;-66
2022/10/03 01:11:20;;;;;;;3.38;2.22;;;;;;;23.83;46.76;94881.91;5020345;28;20053;-66
2022/10/03 01:13:53;;;;;;;4.40;2.00;;;;;;;23.83;47.19;94883.91;5018954;28;20087;-66
2022/10/03 01:16:37;;;;;;;2.58;2.05;;;;;;;23.83;46.75;94895.53;5001556;28;20053;-66
2022/10/03 01:19:25;;;;;;;2.47;2.00;;;;;;;23.81;46.99;94891.84;5001706;28;20042;-66
2022/10/03 01:22:28;;;;;;;2.88;1.80;;;;;;;23.81;46.96;94886.38;5010974;28;20134;-66
2022/10/03 01:25:22;;;;;;;2.60;1.83;;;;;;;23.79;47.08;94880.72;4999219;28;20048;-68
2022/10/03 01:30:52;;;;;;;2.65;1.80;;;;;;;23.76;47.27;94857.94;4990681;28;20100;-66
2022/10/03 01:33:36;;;;;;;2.67;1.98;;;;;;;23.81;47.38;94864.56;4981386;28;20036;-67
2022/10/03 01:36:07;;;;;;;2.75;1.90;;;;;;;23.78;47.31;94871.81;4969187;28;20050;-67
2022/10/03 01:38:39;;;;;;;2.42;1.80;;;;;;;23.78;47.11;94876.50;4965740;28;20030;-67
2022/10/03 01:41:23;;;;;;;2.72;1.90;;;;;;;23.77;47.12;94877.78;4990207;28;20073;-67
2022/10/03 01:43:49;;;;;;;2.88;1.90;;;;;;;23.74;47.48;94871.34;4994115;28;20050;-66
2022/10/03 01:46:19;;;;;;;2.72;2.03;;;;;;;23.76;47.47;94873.56;4996349;28;20085;-65
2022/10/03 01:49:00;;;;;;;2.15;1.80;;;;;;;23.76;47.46;94870.84;4997760;28;20128;-67
2022/10/03 01:51:47;;;;;;;2.40;1.80;;;;;;;23.76;47.58;94873.56;4998698;28;20073;-65
2022/10/03 01:54:36;;;;;;;2.47;1.75;;;;;;;23.70;47.50;94859.25;4996761;28;20155;-66
2022/10/03 01:57:07;;;;;;;2.53;1.90;;;;;;;23.72;47.58;94854.03;4981388;28;20037;-66
2022/10/03 01:59:46;;;;;;;3.65;1.83;;;;;;;23.72;47.10;94857.50;4998524;28;20048;-66
2022/10/03 02:02:34;;;;;;;1.85;1.65;;;;;;;23.72;47.63;94857.50;4997563;28;20048;-65
2022/10/03 02:05:11;;;;;;;3.33;1.60;;;;;;;23.71;47.22;94861.47;4985646;28;20046;-67
2022/10/03 02:07:49;;;;;;;2.20;1.67;;;;;;;23.73;47.31;94858.22;4986172;28;20838;-67
2022/10/03 02:10:39;;;;;;;3.17;1.90;;;;;;;23.72;47.69;94851.28;4995171;28;20076;-67
2022/10/03 02:13:27;;;;;;;;;;;;;;;23.71;47.72;94856.03;5002083;28;20029;-66
2022/10/03 02:16:17;;;;;;;2.33;1.88;;;;;;;23.71;47.91;94849.84;5001193;28;19926;-66
2022/10/03 02:18:46;;;;;;;2.67;1.42;;;;;;;23.70;47.55;94853.81;5000818;28;20129;-68
2022/10/03 02:24:14;;;;;;;2.53;1.67;;;;;;;23.68;47.36;94853.59;5135608;27;20448;-66
2022/10/03 02:27:06;;;;;;;2.83;1.90;;;;;;;23.67;47.70;94866.47;5088707;28;20122;-67
2022/10/03 02:29:57;;;;;;;2.53;1.70;;;;;;;23.64;47.71;94844.97;5075259;28;20843;-66
2022/10/03 02:32:48;;;;;;;2.05;1.65;;;;;;;23.67;47.89;94854.84;5079855;28;20130;-67
2022/10/03 02:35:42;;;;;;;2.97;1.60;;;;;;;23.65;47.47;94862.81;5082738;28;20929;-68
2022/10/03 02:38:16;;;;;;;2.38;1.63;;;;;;;23.67;48.00;94857.56;5081753;28;20036;-66
2022/10/03 02:41:26;;;;;;;2.50;1.90;;;;;;;23.64;47.51;94855.88;5091146;28;20046;-68
2022/10/03 02:44:13;;;;;;;2.85;1.70;;;;;;;23.65;47.59;94858.09;5067445;28;20055;-66
2022/10/03 02:47:00;;;;;;;2.30;1.70;;;;;;;23.67;47.51;94854.84;5088767;28;20048;-66
2022/10/03 02:50:03;;;;;;;2.38;1.70;;;;;;;23.63;48.04;94860.56;5087354;28;20437;-66
2022/10/03 02:52:47;;;;;;;2.58;1.70;;;;;;;23.66;47.55;94858.81;5092108;28;20144;-66
2022/10/03 02:56:10;;;;;;;2.53;1.90;;;;;;;23.62;47.65;94863.81;5096430;28;20097;-67
2022/10/03 02:59:18;;;;;;;2.75;2.08;;;;;;;23.16;47.81;94790.50;5013566;28;20092;-65
2022/10/03 03:02:05;;;;;;;2.67;2.00;;;;;;;23.64;48.05;94862.03;4983202;28;20112;-67
2022/10/03 03:04:52;;;;;;;2.50;1.80;;;;;;;23.62;47.67;94863.81;5085800;28;20067;-66
2022/10/03 03:07:49;;;;;;;1.75;1.45;;;;;;;23.61;47.80;94857.59;5095707;28;20114;-66
2022/10/03 03:10:21;;;;;;;3.05;1.73;;;;;;;23.38;47.83;94817.50;5080522;28;20035;-67
2022/10/03 03:13:14;;;;;;;2.33;1.95;;;;;;;23.61;47.69;94856.88;5086226;28;20130;-65
2022/10/03 03:15:53;;;;;;;2.50;1.90;;;;;;;23.61;47.92;94856.88;5090299;28;20036;-66
2022/10/03 03:18:34;;;;;;;2.17;1.80;;;;;;;23.29;47.76;94812.41;5091011;28;20032;-65
2022/10/03 03:21:32;;;;;;;2.55;1.60;;;;;;;23.58;48.02;94857.91;5075897;28;20031;-65
2022/10/03 03:24:10;;;;;;;2.50;1.80;;;;;;;23.59;48.03;94853.94;5095247;28;20044;-66
2022/10/03 03:26:44;;;;;;;2.13;1.40;;;;;;;23.33;48.11;94812.84;5086253;28;20077;-65
2022/10/03 03:29:19;;;;;;;3.10;1.63;;;;;;;23.59;48.38;94848.47;5078078;28;20036;-66
2022/10/03 03:31:53;;;;;;;2.33;1.60;;;;;;;23.52;48.08;94838.88;5077889;28;20067;-67
2022/10/03 03:34:41;;;;;;;3.38;1.90;;;;;;;23.58;48.18;94849.72;5084153;28;20127;-66
2022/10/03 03:37:27;;;;;;;2.55;1.90;;;;;;;23.59;48.23;94843.03;5081224;28;20071;-67
2022/10/03 03:40:01;;;;;;;2.50;1.73;;;;;;;23.23;48.16;94789.94;5064916;28;20050;-66
2022/10/03 03:42:46;;;;;;;2.33;1.80;;;;;;;23.48;48.05;94832.22;5061185;28;20036;-67
2022/10/03 03:45:56;;;;;;;2.75;1.70;;;;;;;23.55;48.15;94837.13;5068047;28;20062;-66
2022/10/03 03:48:40;;;;;;;2.90;1.80;;;;;;;23.02;48.13;94753.53;5013178;28;20042;-66
2022/10/03 03:51:22;;;;;;;5.55;1.92;;;;;;;23.45;47.97;94816.91;5044342;28;20068;-66
2022/10/03 03:54:13;;;;;;;4.15;1.92;;;;;;;23.56;47.95;94822.97;5062558;28;20040;-66
2022/10/03 03:56:53;;;;;;;4.95;2.13;;;;;;;23.36;48.16;94800.91;5071003;28;20449;-66
2022/10/03 03:59:57;;;;;;;6.55;2.60;;;;;;;23.54;48.36;94832.91;5069571;28;20048;-67
2022/10/03 04:02:49;;;;;;;5.47;2.47;;;;;;;23.54;48.38;94825.47;5058801;28;20733;-60
2022/10/03 04:05:22;;;;;;;6.53;1.90;;;;;;;23.55;47.96;94826.94;5031311;28;20064;-60
2022/10/03 04:08:29;;;;;;;10.93;2.65;;;;;;;23.54;47.91;94819.28;5073789;28;20529;-59
2022/10/03 04:11:07;;;;;;;8.35;2.17;;;;;;;23.53;48.41;94834.19;5067777;28;20047;-59
2022/10/03 04:13:58;;;;;;;7.20;2.30;;;;;;;23.59;48.33;94832.84;5073907;28;20032;-59
2022/10/03 04:19:58;;;;;;;7.03;2.03;;;;;;;23.58;48.56;94819.72;5077221;28;20177;-61
2022/10/03 04:22:54;;;;;;;9.82;2.22;;;;;;;23.66;48.47;94826.84;5064706;28;20055;-68
2022/10/03 04:25:30;;;;;;;12.48;2.72;;;;;;;23.65;48.71;94824.63;5035954;28;20087;-67
2022/10/03 04:28:34;;;;;;;11.35;2.63;;;;;;;23.64;48.66;94817.69;5032705;28;20132;-67
2022/10/03 04:31:18;;;;;;;9.75;2.72;;;;;;;23.66;48.74;94820.63;5035921;28;20052;-66
2022/10/03 04:33:53;;;;;;;10.32;2.55;;;;;;;23.68;48.17;94829.06;5036792;28;20343;-67
2022/10/03 04:36:40;;;;;;;10.38;3.13;;;;;;;23.73;48.45;94825.50;5036766;28;20045;-67
2022/10/03 04:39:35;;;;;;;7.63;2.65;;;;;;;23.83;48.07;94823.91;5035545;28;20103;-65
2022/10/03 04:42:09;;;;;;;7.65;2.63;;;;;;;23.90;48.33;94815.84;5033131;28;20045;-66
2022/10/03 04:44:56;;;;;;;5.90;2.10;;;;;;;24.04;47.94;94811.94;5036951;28;20199;-67
2022/10/03 04:47:32;;;;;;;10.43;2.90;;;;;;;24.14;47.45;94819.22;5036333;28;20057;-66
2022/10/03 04:50:19;;;;;;;9.55;2.70;;;;;;;24.20;47.81;94819.88;5036216;28;20055;-68
2022/10/03 04:53:10;;;;;;;11.50;2.80;;;;;;;24.12;46.98;94791.69;5038497;28;20353;-68
2022/10/03 04:56:14;;;;;;;13.10;2.75;;;;;;;24.50;46.91;94817.69;5036514;28;20052;-67
2022/10/03 04:58:45;;;;;;;8.18;3.08;;;;;;;24.53;47.03;94814.66;5036482;28;20526;-67
2022/10/03 05:01:34;;;;;;;7.85;2.40;;;;;;;24.10;46.80;94742.38;5034890;28;20045;-67
2022/10/03 05:04:05;;;;;;;7.25;2.65;;;;;;;24.80;46.49;94812.69;5023400;28;20037;-66
2022/10/03 05:06:36;;;;;;;9.40;2.50;;;;;;;24.84;46.43;94816.59;5036138;28;20044;-66
2022/10/03 05:09:26;;;;;;;13.75;2.83;;;;;;;24.92;46.03;94822.91;5036126;28;20035;-66
2022/10/03 05:12:31;;;;;;;8.95;2.97;;;;;;;24.92;45.91;94810.00;5034101;28;20494;-65
2022/10/03 05:15:08;;;;;;;11.75;3.00;;;;;;;25.03;45.76;94807.06;5036022;28;20056;-68
2022/10/03 05:18:11;;;;;;;10.07;2.97;;;;;;;24.67;45.27;94736.22;5035356;28;20032;-63
2022/10/03 05:20:58;;;;;;;8.38;2.85;;;;;;;25.38;45.30;94809.38;5037910;28;20063;-63
2022/10/03 05:23:30;;;;;;;10.38;3.17;;;;;;;25.24;45.72;94810.66;5021181;28;20045;-64
2022/10/03 05:26:18;;;;;;;9.68;2.78;;;;;;;25.34;45.31;94808.97;5021475;28;20041;-63
2022/10/03 05:29:02;;;;;;;9.82;2.65;;;;;;;24.89;45.71;94759.13;5020286;28;20131;-61
2022/10/03 05:31:34;;;;;;;10.35;3.25;;;;;;;25.47;45.17;94811.69;5035624;28;20040;-61
2022/10/03 05:34:34;;;;;;;9.65;2.75;;;;;;;25.40;45.44;94802.13;5018826;28;20075;-61
2022/10/03 05:37:37;;;;;;;10.23;2.65;;;;;;;25.51;45.01;94795.72;5021274;28;20045;-63
2022/10/03 05:40:27;;;;;;;9.55;2.47;;;;;;;25.69;44.81;94779.19;5021581;28;20854;-62
2022/10/03 05:43:10;;;;;;;10.05;2.80;;;;;;;25.65;45.01;94769.81;5015247;28;20109;-62
2022/10/03 05:46:04;;;;;;;15.15;3.25;;;;;;;25.77;45.04;94773.78;5023039;28;20049;-62
2022/10/03 05:48:54;;;;;;;11.82;3.17;;;;;;;25.57;44.70;94750.56;5022165;28;21263;-61
2022/10/03 05:51:42;;;;;;;11.38;3.08;;;;;;;25.70;44.95;94790.88;5022211;28;20040;-61
2022/10/03 05:54:59;;;;;;;10.65;2.97;;;;;;;25.88;44.54;94794.16;5021575;28;20041;-61
2022/10/03 05:58:01;;;;;;;8.40;2.50;;;;;;;25.90;44.80;94799.09;4982953;28;20052;-62
2022/10/03 06:01:05;;;;;;;7.60;2.63;;;;;;;25.89;44.76;94801.13;4982906;28;20187;-63
2022/10/03 06:03:49;;;;;;;9.32;2.70;;;;;;;25.94;44.51;94800.25;5018791;28;20480;-63
2022/10/03 06:06:23;;;;;;;10.20;2.90;;;;;;;26.15;44.52;94814.72;5020587;28;20561;-62
2022/10/03 06:09:14;;;;;;;7.75;2.85;;;;;;;25.83;43.55;94778.63;5037962;28;21745;-63
2022/10/03 06:12:01;;;;;;;8.05;2.80;;;;;;;26.12;44.16;94810.31;5022525;28;20325;-63
2022/10/03 06:14:42;;;;;;;7.88;2.60;;;;;;;26.14;44.11;94818.72;5021506;28;20044;-63
2022/10/03 06:17:26;;;;;;;8.85;2.42;;;;;;;26.25;43.95;94813.00;5020502;28;20060;-62
2022/10/03 06:20:03;;;;;;;6.55;2.60;;;;;;;25.79;44.37;94763.06;5022597;28;20052;-63
2022/10/03 06:22:59;;;;;;;6.57;2.40;;;;;;;26.26;43.82;94824.66;5034721;28;20811;-61
2022/10/03 06:25:25;;;;;;;10.48;2.70;;;;;;;26.30;43.70;94831.31;5056398;28;20054;-62
2022/10/03 06:28:17;;;;;;;8.07;2.63;;;;;;;25.84;43.89;94769.16;5058025;28;20820;-61
2022/10/03 06:30:52;;;;;;;6.63;2.45;;;;;;;26.16;45.36;94824.41;5040848;28;20122;-67
2022/10/03 06:33:56;;;;;;;7.20;3.13;;;;;;;25.85;42.44;94816.38;5048114;28;20048;-70
2022/10/03 06:36:37;;;;;;;7.60;2.78;;;;;;;25.73;41.90;94811.69;5041263;28;20040;-69
2022/10/03 06:39:21;;;;;;;8.25;2.97;;;;;;;25.68;41.42;94810.53;5058192;28;20058;-65
2022/10/03 06:42:30;;;;;;;6.78;2.70;;;;;;;25.60;40.98;94808.94;5044173;28;20027;-67
2022/10/03 06:45:08;;;;;;;8.13;2.92;;;;;;;25.64;40.92;94820.31;5040037;28;20040;-66
2022/10/03 06:48:12;;;;;;;10.25;3.13;;;;;;;25.62;40.32;94833.75;5065245;28;20264;-69
2022/10/03 06:50:49;;;;;;;7.35;2.83;;;;;;;25.50;40.67;94832.50;5046093;28;20052;-64
2022/10/03 06:53:40;;;;;;;6.43;2.80;;;;;;;25.45;40.48;94830.63;5061010;28;20138;-65
2022/10/03 06:56:24;;;;;;;8.27;3.45;;;;;;;25.40;41.12;94831.47;5044915;28;20119;-64
2022/10/03 06:59:11;;;;;;;7.50;3.33;;;;;;;25.39;40.85;94832.72;5062573;28;20598;-66
2022/10/03 07:01:51;;;;;;;7.18;3.58;;;;;;;25.19;40.23;94808.78;5058496;28;20055;-65
2022/10/03 07:04:31;;;;;;;12.32;3.80;;;;;;;25.30;40.14;94846.09;5028857;28;21637;-65
2022/10/03 07:07:21;;;;;;;10.50;3.95;;;;;;;25.21;40.49;94866.38;5064588;28;20052;-68
2022/10/03 07:10:09;;;;;;;9.30;3.70;;;;;;;25.10;40.25;94872.03;5065911;28;20040;-68
2022/10/03 07:12:55;;;;;;;6.95;3.25;;;;;;;25.13;39.83;94873.72;5068523;28;20052;-70
2022/10/03 07:15:33;;;;;;;7.68;3.42;;;;;;;25.01;40.29;94879.91;5068439;28;20806;-71
2022/10/03 07:18:26;;;;;;;8.57;3.40;;;;;;;24.99;39.94;94905.03;5068735;28;20040;-70
2022/10/03 07:21:13;;;;;;;8.70;3.90;;;;;;;24.91;40.09;94898.66;5052072;28;20247;-69
2022/10/03 07:24:18;;;;;;;8.27;3.70;;;;;;;24.84;40.27;94910.22;5055049;28;20968;-66
2022/10/03 07:27:01;;;;;;;8.13;4.28;;;;;;;24.79;40.13;94912.31;5046718;28;21450;-68
2022/10/03 07:29:52;;;;;;;7.93;4.00;;;;;;;24.72;40.86;94923.81;5065018;28;20042;-66
2022/10/03 07:32:48;;;;;;;8.00;4.22;;;;;;;24.64;40.67;94925.69;5064097;28;20055;-66
2022/10/03 07:38:58;;;;;;;7.00;4.10;;;;;;;24.24;40.88;94918.53;5044744;28;20070;-65
2022/10/03 07:41:51;;;;;;;10.25;4.10;;;;;;;24.29;40.71;94936.84;5058823;28;20052;-63
2022/10/03 07:44:31;;;;;;;9.60;3.95;;;;;;;24.21;41.25;94941.41;5010073;28;20778;-65
2022/10/03 07:47:48;;;;;;;10.35;4.00;;;;;;;24.17;41.00;94951.88;5046985;28;20078;-63
2022/10/03 07:50:20;;;;;;;9.77;4.00;;;;;;;24.13;41.41;94954.16;5031517;28;20138;-64
2022/10/03 07:52:59;;;;;;;11.98;3.95;;;;;;;24.16;41.53;94933.31;5048453;28;20048;-66
2022/10/03 07:55:37;;;;;;;7.43;4.00;;;;;;;24.12;41.41;94938.31;5063295;28;20177;-64
2022/10/03 07:58:20;;;;;;;7.32;4.00;;;;;;;24.03;42.04;94933.94;5062075;28;20044;-66
2022/10/03 08:01:04;;;;;;;9.25;4.35;;;;;;;23.95;42.01;94938.50;5063553;28;20124;-67
2022/10/03 08:03:44;;;;;;;11.95;4.30;;;;;;;23.89;41.82;94932.38;5064358;28;20090;-69
2022/10/03 08:06:35;;;;;;;8.65;3.97;;;;;;;23.83;42.51;94938.44;5044443;28;21219;-65
2022/10/03 08:09:10;;;;;;;7.22;3.65;;;;;;;23.77;42.59;94940.50;5064636;28;20910;-67
2022/10/03 08:11:45;;;;;;;8.27;3.42;;;;;;;23.77;42.35;94935.03;5028980;28;20027;-70
2022/10/03 08:14:41;;;;;;;9.07;3.65;;;;;;;23.74;42.42;94941.50;5063835;28;21576;-70
2022/10/03 08:17:16;;;;;;;11.48;3.38;;;;;;;23.73;42.87;94942.75;5010808;28;20865;-68
2022/10/03 08:19:51;;;;;;;7.93;3.38;;;;;;;23.68;42.69;94954.47;5063475;28;20114;-64
2022/10/03 08:22:28;;;;;;;6.35;3.15;;;;;;;23.65;43.11;94944.59;5031621;28;20059;-64
2022/10/03 08:25:11;;;;;;;8.95;3.42;;;;;;;23.53;43.06;94943.22;5045613;28;20044;-64
2022/10/03 08:27:36;;;;;;;6.57;3.10;;;;;;;23.57;43.23;94954.53;5062153;28;20521;-64
2022/10/03 08:30:21;;;;;;;9.82;3.17;;;;;;;23.47;42.96;94929.63;5064203;28;20884;-66
2022/10/03 08:32:59;;;;;;;7.63;3.17;;;;;;;22.85;43.57;94852.22;5063286;28;20149;-65
2022/10/03 08:35:37;;;;;;;8.20;3.10;;;;;;;23.49;43.44;94948.91;5062331;28;20131;-64
2022/10/03 08:38:18;;;;;;;12.95;3.60;;;;;;;23.45;43.58;94953.19;5048072;28;20125;-64
2022/10/03 08:41:02;;;;;;;5.80;3.13;;;;;;;23.40;43.74;94951.25;5068676;28;20044;-66
2022/10/03 08:43:52;;;;;;;5.00;2.60;;;;;;;23.35;44.48;94954.78;5065230;28;20036;-64
2022/10/03 08:46:49;;;;;;;6.47;2.78;;;;;;;23.31;43.98;94954.31;5045662;28;20055;-65
2022/10/03 08:49:50;;;;;;;5.88;2.50;;;;;;;23.29;44.40;94956.81;5067701;28;20048;-67
2022/10/03 08:52:20;;;;;;;8.68;2.63;;;;;;;23.27;44.18;94964.75;5065334;28;20051;-66
2022/10/03 08:54:51;;;;;;;5.93;2.50;;;;;;;23.21;44.43;94945.00;5066617;28;20043;-72
2022/10/03 08:57:25;;;;;;;5.72;2.65;;;;;;;23.31;44.13;94965.22;5064061;28;20078;-64
2022/10/03 09:00:09;;;;;;;6.03;2.35;;;;;;;23.25;44.90;94961.81;5067506;28;20032;-68
2022/10/03 09:02:53;;;;;;;5.30;3.00;;;;;;;23.21;44.84;94972.22;5067850;28;20067;-64
2022/10/03 09:05:46;;;;;;;5.75;2.88;;;;;;;23.20;45.27;94965.31;5046949;28;20056;-63
2022/10/03 09:08:18;;;;;;;6.18;2.92;;;;;;;23.20;45.35;94961.84;5063145;28;20534;-65
2022/10/03 09:11:05;;;;;;;6.45;2.53;;;;;;;23.09;45.67;94965.44;5067350;28;20196;-64
2022/10/03 09:13:42;;;;;;;6.80;2.80;;;;;;;23.11;46.11;94971.09;5067139;28;21168;-67
2022/10/03 09:16:26;;;;;;;6.97;3.20;;;;;;;23.14;46.22;94983.69;5069710;28;20075;-64
2022/10/03 09:19:31;;;;;;;5.38;3.28;;;;;;;23.11;46.53;94962.94;5070113;28;20044;-64
2022/10/03 09:22:15;;;;;;;5.75;2.65;;;;;;;23.16;46.79;94967.56;5019800;28;20093;-64
2022/10/03 09:24:50;;;;;;;8.18;3.33;;;;;;;23.14;47.51;94967.34;5066067;28;20048;-64
2022/10/03 09:27:24;;;;;;;5.45;2.88;;;;;;;23.09;47.76;94968.16;5063615;28;20166;-66
2022/10/03 09:30:19;;;;;;;7.47;3.00;;;;;;;23.09;48.03;94979.03;5064315;28;20028;-67
2022/10/03 09:33:04;;;;;;;7.25;3.28;;;;;;;23.11;48.93;94962.94;5031517;28;20024;-64
2022/10/03 09:35:32;;;;;;;6.55;2.33;;;;;;;23.06;48.23;94950.09;5064568;28;20418;-65
2022/10/03 09:38:28;;;;;;;5.03;2.30;;;;;;;22.67;47.08;94907.31;5065848;28;20051;-64
2022/10/03 09:41:15;;;;;;;4.53;2.10;;;;;;;22.94;47.11;94965.06;5043153;28;20961;-62
2022/10/03 09:44:00;;;;;;;4.90;1.85;;;;;;;22.89;47.12;94963.06;5065616;28;20055;-64
2022/10/03 09:46:38;;;;;;;4.15;2.10;;;;;;;22.79;47.16;94957.72;5063448;28;20114;-62
2022/10/03 09:49:28;;;;;;;5.90;2.20;;;;;;;22.79;46.67;94957.72;5049377;28;20035;-63
2022/10/03 09:52:15;;;;;;;5.75;1.92;;;;;;;22.74;46.85;94961.22;5066592;28;20098;-63
2022/10/03 09:54:54;;;;;;;4.00;1.88;;;;;;;22.11;46.61;94876.28;5069206;28;20489;-63
2022/10/03 09:57:41;;;;;;;3.33;1.60;;;;;;;22.71;46.30;94956.78;5048764;28;20055;-64
2022/10/03 10:00:20;;;;;;;3.97;1.83;;;;;;;22.65;45.66;94953.38;5068200;28;20147;-62
2022/10/03 10:03:02;;;;;;;4.35;1.98;;;;;;;22.47;47.53;94921.31;5066715;28;20497;-63
2022/10/03 10:06:05;;;;;;;4.88;1.80;;;;;;;22.81;47.60;94938.88;5049474;28;20039;-64
2022/10/03 10:09:04;;;;;;;4.22;2.10;;;;;;;22.90;48.12;94948.22;5064657;28;20143;-64
2022/10/03 10:12:07;;;;;;;6.50;2.23;;;;;;;22.85;48.21;94928.47;5064700;28;20059;-65
2022/10/03 10:14:54;;;;;;;3.53;1.75;;;;;;;22.98;48.07;94960.06;5065458;28;20051;-65
2022/10/03 10:17:20;;;;;;;3.25;1.90;;;;;;;22.33;48.52;94843.53;5064188;28;20054;-65
2022/10/03 10:20:04;;;;;;;6.88;2.10;;;;;;;23.04;48.03;94952.56;5065894;28;20402;-64
2022/10/03 10:23:14;;;;;;;3.83;2.00;;;;;;;22.19;47.73;94801.06;5042996;28;20159;-62
2022/10/03 10:26:17;;;;;;;4.45;2.10;;;;;;;23.12;47.99;94948.06;5035753;28;20123;-63
2022/10/03 10:29:06;;;;;;;4.55;2.22;;;;;;;23.19;47.68;94941.31;5063075;28;20043;-64
2022/10/03 10:32:08;;;;;;;4.20;1.90;;;;;;;23.23;47.38;94937.06;5065372;28;20323;-64
2022/10/03 10:34:47;;;;;;;4.28;1.83;;;;;;;23.29;47.88;94951.38;5064977;28;20059;-63
2022/10/03 10:37:53;;;;;;;3.95;1.95;;;;;;;23.37;46.60;94952.28;5044144;28;20071;-63
2022/10/03 10:40:49;;;;;;;3.13;1.70;;;;;;;22.78;46.22;94847.34;5064067;28;20264;-63
2022/10/03 10:44:01;;;;;;;3.00;1.80;;;;;;;23.52;45.76;94952.63;5067812;28;20101;-64
2022/10/03 10:46:51;;;;;;;2.88;1.80;;;;;;;23.61;45.60;94938.66;5052938;28;20043;-64
2022/10/03 10:49:34;;;;;;;3.70;1.85;;;;;;;23.51;44.89;94929.31;5072340;28;20632;-67
2022/10/03 10:52:10;;;;;;;1.75;1.33;;;;;;;23.75;45.24;94959.34;5052948;28;21679;-65
2022/10/03 10:55:06;;;;;;;3.13;1.60;;;;;;;23.82;44.94;94953.31;5071793;28;20137;-68
2022/10/03 10:57:54;;;;;;;4.32;1.98;;;;;;;23.91;44.93;94946.25;5072900;28;20050;-64
2022/10/03 11:00:38;;;;;;;3.50;1.58;;;;;;;24.00;44.48;94945.88;5073748;28;20068;-66
2022/10/03 11:03:37;;;;;;;4.05;1.80;;;;;;;24.06;44.61;94941.09;5072646;28;20040;-66
2022/10/03 11:06:27;;;;;;;2.60;1.40;;;;;;;24.14;44.29;94958.38;5049987;28;20081;-65
2022/10/03 11:09:07;;;;;;;4.15;1.50;;;;;;;24.23;43.69;94955.28;5070614;28;20108;-65
2022/10/03 11:11:51;;;;;;;2.80;1.40;;;;;;;24.25;43.47;94941.84;5069054;28;20826;-68
2022/10/03 11:14:17;;;;;;;4.57;1.60;;;;;;;24.29;43.77;94944.28;5070868;28;21383;-65
2022/10/03 11:17:07;;;;;;;3.15;1.60;;;;;;;24.32;43.61;94944.00;5070236;28;20503;-64
2022/10/03 11:19:54;;;;;;;2.30;1.25;;;;;;;24.42;43.24;94950.56;5068830;28;20044;-63
2022/10/03 11:23:07;;;;;;;5.97;2.30;;;;;;;24.45;43.54;94949.53;5068964;28;20166;-64
2022/10/03 11:25:56;;;;;;;2.70;1.75;;;;;;;24.51;43.38;94963.84;4964963;28;20196;-63
2022/10/03 11:28:59;;;;;;;3.85;1.52;;;;;;;24.55;43.06;94953.38;4969169;28;20157;-65
2022/10/03 11:31:48;;;;;;;3.00;1.30;;;;;;;24.60;42.86;94949.81;5065487;28;21166;-65
2022/10/03 11:34:48;;;;;;;3.45;1.42;;;;;;;24.63;43.24;94954.25;5065827;28;20135;-63
2022/10/03 11:37:13;;;;;;;2.40;1.77;;;;;;;24.69;42.89;94946.72;5066129;28;20605;-65
2022/10/03 11:39:41;;;;;;;2.70;1.63;;;;;;;24.69;42.79;94952.91;5069294;28;20783;-65
2022/10/03 11:42:21;;;;;;;2.38;1.58;;;;;;;24.72;43.13;94945.66;5067921;28;20119;-65
2022/10/03 11:44:58;;;;;;;3.35;1.80;;;;;;;24.75;42.94;94953.56;5072511;28;20061;-64
2022/10/03 11:47:49;;;;;;;3.53;1.42;;;;;;;24.66;42.93;94936.81;5070783;28;20066;-66
2022/10/03 11:50:20;;;;;;;3.53;1.90;;;;;;;24.77;43.39;94958.50;5071985;28;20044;-65
2022/10/03 11:53:06;;;;;;;2.90;1.75;;;;;;;24.76;43.27;94946.13;5069581;28;20052;-64
2022/10/03 11:55:43;;;;;;;3.83;1.95;;;;;;;24.62;43.13;94930.91;5055785;28;20066;-63
2022/10/03 11:58:45;;;;;;;3.58;1.80;;;;;;;23.77;43.04;94798.69;5049607;28;20044;-62
2022/10/03 12:01:23;;;;;;;2.63;1.90;;;;;;;24.77;43.09;94942.88;5053717;28;20047;-65
2022/10/03 12:03:59;;;;;;;2.72;1.70;;;;;;;24.43;42.96;94881.09;5051828;28;20052;-70
2022/10/03 12:09:44;;;;;;;;;;;;;;;24.76;43.59;94944.13;5073275;28;20055;-67
2022/10/03 12:12:30;;;;;;;3.58;1.77;;;;;;;24.78;43.48;94949.06;5071247;28;19958;-65
2022/10/03 12:15:01;;;;;;;3.08;2.10;;;;;;;24.28;43.14;94869.84;5076703;28;20028;-71
2022/10/03 12:17:31;;;;;;;3.15;1.98;;;;;;;24.79;43.57;94945.06;5035058;28;20034;-63
2022/10/03 12:20:17;;;;;;;5.05;2.20;;;;;;;24.79;43.49;94940.34;5057146;28;20056;-67
2022/10/03 12:22:48;;;;;;;3.45;1.98;;;;;;;24.80;43.13;94941.06;5051585;28;20443;-67
2022/10/03 12:25:46;;;;;;;3.30;1.90;;;;;;;24.82;43.23;94934.56;5071347;28;20055;-66
2022/10/03 12:28:25;;;;;;;4.25;2.40;;;;;;;24.83;43.05;94930.59;5006790;28;20044;-66
2022/10/03 12:31:25;;;;;;;3.28;2.08;;;;;;;24.72;43.19;94913.63;5047816;28;20056;-64
2022/10/03 12:34:18;;;;;;;4.53;2.17;;;;;;;24.85;43.33;94922.59;5063736;28;20256;-67
2022/10/03 12:37:07;;;;;;;2.90;2.17;;;;;;;24.80;43.63;94917.25;5066311;28;20604;-68
2022/10/03 12:40:09;;;;;;;3.90;2.23;;;;;;;24.86;43.41;94904.97;5066833;28;21205;-65
2022/10/03 12:42:46;;;;;;;3.83;2.17;;;;;;;24.91;43.42;94915.06;5049022;28;21177;-64
2022/10/03 12:45:20;;;;;;;3.45;1.90;;;;;;;24.94;43.13;94918.75;5046941;28;20055;-64
2022/10/03 12:47:53;;;;;;;2.15;1.80;;;;;;;24.94;43.52;94914.00;5067506;28;20036;-64
2022/10/03 12:50:21;;;;;;;2.47;1.88;;;;;;;24.96;43.15;94933.38;5048537;28;20040;-70
2022/10/03 12:53:18;;;;;;;4.10;2.22;;;;;;;24.94;43.17;94924.94;5067418;28;20035;-68
2022/10/03 12:56:06;;;;;;;4.25;2.10;;;;;;;25.02;43.30;94914.91;5031228;28;20044;-67
2022/10/03 12:58:50;;;;;;;3.10;2.13;;;;;;;25.06;42.78;94925.53;5047358;28;20042;-67
2022/10/03 13:01:37;;;;;;;3.75;2.17;;;;;;;25.09;42.66;94924.50;5065944;28;20135;-67
2022/10/03 13:05:05;;;;;;;3.25;2.20;;;;;;;24.72;42.30;94866.47;5043991;28;20048;-69
2022/10/03 13:07:51;;;;;;;3.10;2.35;;;;;;;25.19;42.37;94948.16;4946035;28;20077;-66
2022/10/03 13:10:30;;;;;;;3.53;2.70;;;;;;;25.23;42.44;94934.94;5066681;28;20066;-69
2022/10/03 13:13:15;;;;;;;4.80;2.50;;;;;;;24.42;41.89;94808.63;5065886;28;20058;-68
2022/10/03 13:15:54;;;;;;;3.58;2.50;;;;;;;25.31;42.39;94941.25;5064370;28;20047;-65